createdAt,value
2018-09-13T00:03:32.845Z,6.7
2018-09-13T00:23:45.147Z,6.9
2018-09-13T00:38:45.032Z,12.9
2018-09-13T00:53:44.883Z,13
2018-09-13T01:08:57.656Z,8.2
2018-09-13T01:28:57.396Z,7.8
2018-09-13T02:19:08.616Z,7.7
2018-09-13T02:34:08.567Z,8
2018-09-13T02:49:09.172Z,9.9
2018-09-13T03:04:19.865Z,7.3
2018-09-13T03:24:19.594Z,8.2
2018-09-13T03:39:19.573Z,9.2
2018-09-13T03:54:19.749Z,9.1
2018-09-13T04:14:31.649Z,11.2
2018-09-13T04:29:31.535Z,7.9
2018-09-13T04:44:31.429Z,9.8
2018-09-13T05:19:43.586Z,13.2
2018-09-13T05:34:45.395Z,9.5
2018-09-13T05:49:45.400Z,12.7
2018-09-13T06:10:00.659Z,10
2018-09-13T06:25:00.488Z,11.4
2018-09-13T06:40:00.335Z,13.2
2018-09-13T07:00:13.176Z,8.1
2018-09-13T07:15:13.183Z,17.8
2018-09-13T07:30:13.936Z,15.9
2018-09-13T07:45:14.141Z,9.7
2018-09-13T08:05:27.113Z,10
2018-09-13T08:20:27.100Z,8.8
2018-09-13T08:35:26.891Z,13
2018-09-13T09:25:39.866Z,7.3
2018-09-13T09:45:51.185Z,7.3
2018-09-13T10:00:51.192Z,6.6
2018-09-13T10:15:51.180Z,10.5
2018-09-13T10:31:02.432Z,7.1
2018-09-13T10:51:02.419Z,4.8
2018-09-13T11:06:14.736Z,8.5
2018-09-13T11:21:14.621Z,8.8
2018-09-13T11:41:17.642Z,7
2018-09-13T11:56:29.840Z,6.5
2018-09-13T12:11:29.641Z,6.4
2018-09-13T12:46:29.876Z,22.7
2018-09-13T13:01:42.613Z,9.9
2018-09-13T13:51:54.777Z,6.8
2018-09-13T14:06:54.776Z,7.1
2018-09-13T14:41:54.700Z,6.8
2018-09-13T14:57:07.972Z,8
2018-09-13T15:12:07.508Z,15.5
2018-09-13T15:32:09.536Z,16.2
2018-09-13T15:47:21.056Z,6.8
2018-09-13T16:17:24.383Z,9.3
2018-09-13T16:37:34.203Z,6.6
2018-09-13T16:52:34.101Z,6.4
2018-09-13T17:07:35.976Z,5.8
2018-09-13T17:22:49.580Z,5.5
2018-09-13T17:42:49.606Z,4.7
2018-09-13T17:58:01.079Z,9.9
2018-09-13T18:13:00.737Z,7.4
2018-09-13T18:33:01.135Z,10.7
2018-09-13T18:48:00.770Z,6.9
2018-09-13T19:03:02.723Z,12.4
2018-09-13T19:18:14.190Z,22
2018-09-13T19:38:14.250Z,14.6
2018-09-13T19:53:27.201Z,13.5
2018-09-13T20:08:26.586Z,21.6
2018-09-13T20:23:27.836Z,13.4
2018-09-13T20:43:41.816Z,15.7
2018-09-13T20:58:41.847Z,14.7
2018-09-13T21:13:42.063Z,23
2018-09-13T21:33:41.901Z,20.4
2018-09-13T21:48:56.904Z,19
2018-09-13T22:03:56.610Z,21.7
2018-09-13T22:24:00.363Z,27.3
2018-09-13T22:39:12.791Z,25.5
2018-09-13T22:54:12.850Z,29.1
2018-09-13T23:09:12.672Z,24.2
2018-09-13T23:29:12.692Z,29.5
2018-09-13T23:44:24.933Z,31.5
2018-09-13T23:59:24.781Z,25.8
